Terminal Aerodrome Forecast
Issued by NWS

Home | Current Version | Previous Version | Text Only | Print | Product List | Glossary On
Versions: 1 2 3 4 5 6 7 8 9 10 11 12 13 14 15 16 17 18 19 20 21 22 23 24 25 26 27 28
327
FTUS41 KOKX 120830 AAA
TAFSWF
TAF AMD
KSWF 120830Z 1209/1312 15005KT 5SM -SN BR BKN025 OVC040
     FM121200 15005KT 5SM -RASN BR BKN025 OVC040
     FM121500 13006KT 4SM -RA BR BKN015 OVC030
     FM122000 27011KT 6SM -RASN BKN020 OVC040
     FM130000 29014G21KT P6SM -SHSN BKN035
     FM130700 28015G22KT P6SM SCT035 BKN060
      AMD NOT SKED=

USA.gov is the U.S. government's official web portal to all federal, state and local government web resources and services.